<?xml version='1.0' encoding='UTF-8'?>
<gpx xmlns="http://www.topografix.com/GPX/1/1" creator="www.balnam.be" version="1.1" xmlns:xsi="http://www.w3.org/2001/XMLSchema-instance" xsi:schemaLocation="http://www.topografix.com/GPX/1/1 http://www.topografix.com/GPX/1/1/gpx.xsd">
<trk>
<name>bojjj1</name>
<cmt>v</cmt>
<desc>Jandrain-Jandrenouille Chemin n°1 </desc>
<link href="https://chemins.be/jandrainjandrenouille/chemin/1"/><trkseg>
<trkpt lat="50.656675" lon="4.990532"><time>2026-05-02T17:43:34Z</time></trkpt>
<trkpt lat="50.657004" lon="4.989517"><time>2026-05-02T17:53:34Z</time></trkpt>
<trkpt lat="50.658603" lon="4.986356"><time>2026-05-02T18:03:34Z</time></trkpt>
<trkpt lat="50.660698" lon="4.983003"><time>2026-05-02T18:13:34Z</time></trkpt>
<trkpt lat="50.660879" lon="4.982751"><time>2026-05-02T18:23:34Z</time></trkpt>
</trkseg></trk>
<trk>
<name>bojjj1</name>
<cmt>d</cmt>
<desc>Jandrain-Jandrenouille Chemin n°1 </desc>
<link href="https://chemins.be/jandrainjandrenouille/chemin/1"/><trkseg>
<trkpt lat="50.660879" lon="4.982751"><time>2026-05-02T18:23:34Z</time></trkpt>
<trkpt lat="50.662033" lon="4.980319"><time>2026-05-02T18:33:34Z</time></trkpt>
<trkpt lat="50.662794" lon="4.979296"><time>2026-05-02T18:43:34Z</time></trkpt>
<trkpt lat="50.663586" lon="4.977482"><time>2026-05-02T18:53:34Z</time></trkpt>
</trkseg></trk>
<trk>
<name>bojjj1</name>
<cmt>v</cmt>
<desc>Jandrain-Jandrenouille Chemin n°1 </desc>
<link href="https://chemins.be/jandrainjandrenouille/chemin/1"/><trkseg>
<trkpt lat="50.663586" lon="4.977482"><time>2026-05-02T18:53:34Z</time></trkpt>
<trkpt lat="50.664652" lon="4.976392"><time>2026-05-02T19:03:34Z</time></trkpt>
<trkpt lat="50.666694" lon="4.974382"><time>2026-05-02T19:13:34Z</time></trkpt>
<trkpt lat="50.667289" lon="4.974135"><time>2026-05-02T19:23:34Z</time></trkpt>
<trkpt lat="50.668112" lon="4.973141"><time>2026-05-02T19:33:34Z</time></trkpt>
<trkpt lat="50.669762" lon="4.971491"><time>2026-05-02T19:43:34Z</time></trkpt>
<trkpt lat="50.670790" lon="4.968792"><time>2026-05-02T19:53:34Z</time></trkpt>
<trkpt lat="50.671457" lon="4.967808"><time>2026-05-02T20:03:34Z</time></trkpt>
<trkpt lat="50.672735" lon="4.966896"><time>2026-05-02T20:13:34Z</time></trkpt>
<trkpt lat="50.673311" lon="4.966081"><time>2026-05-02T20:23:34Z</time></trkpt>
</trkseg>
</trk>
<trk>
<name>bojjj10</name>
<cmt>s</cmt>
<desc>Jandrain-Jandrenouille Chemin n°10 Rue du Pont Ferré</desc>
<link href="https://chemins.be/jandrainjandrenouille/chemin/10"/><trkseg>
<trkpt lat="50.673915" lon="4.997875"><time>2026-05-02T17:43:34Z</time></trkpt>
<trkpt lat="50.673690" lon="4.994519"><time>2026-05-02T17:53:34Z</time></trkpt>
<trkpt lat="50.673589" lon="4.991575"><time>2026-05-02T18:03:34Z</time></trkpt>
<trkpt lat="50.673039" lon="4.988526"><time>2026-05-02T18:13:34Z</time></trkpt>
<trkpt lat="50.672438" lon="4.986608"><time>2026-05-02T18:23:34Z</time></trkpt>
</trkseg></trk>
<trk>
<name>bojjj10</name>
<cmt>r</cmt>
<desc>Jandrain-Jandrenouille Chemin n°10 Rue du Pont Ferré</desc>
<link href="https://chemins.be/jandrainjandrenouille/chemin/10"/><trkseg>
<trkpt lat="50.672438" lon="4.986608"><time>2026-05-02T18:23:34Z</time></trkpt>
<trkpt lat="50.671105" lon="4.983938"><time>2026-05-02T18:33:34Z</time></trkpt>
<trkpt lat="50.670639" lon="4.981999"><time>2026-05-02T18:43:34Z</time></trkpt>
</trkseg></trk>
<trk>
<name>bojjj10</name>
<cmt>v</cmt>
<desc>Jandrain-Jandrenouille Chemin n°10 Rue du Pont Ferré</desc>
<link href="https://chemins.be/jandrainjandrenouille/chemin/10"/><trkseg>
<trkpt lat="50.670639" lon="4.981999"><time>2026-05-02T18:43:34Z</time></trkpt>
<trkpt lat="50.670107" lon="4.980296"><time>2026-05-02T18:53:34Z</time></trkpt>
<trkpt lat="50.669457" lon="4.978972"><time>2026-05-02T19:03:34Z</time></trkpt>
<trkpt lat="50.668269" lon="4.977528"><time>2026-05-02T19:13:34Z</time></trkpt>
<trkpt lat="50.667298" lon="4.975875"><time>2026-05-02T19:23:34Z</time></trkpt>
<trkpt lat="50.666721" lon="4.974368"><time>2026-05-02T19:33:34Z</time></trkpt>
<trkpt lat="50.665978" lon="4.972180"><time>2026-05-02T19:43:34Z</time></trkpt>
<trkpt lat="50.665213" lon="4.969175"><time>2026-05-02T19:53:34Z</time></trkpt>
</trkseg>
</trk>
<trk>
<name>bojjj11</name>
<cmt>v</cmt>
<desc>Jandrain-Jandrenouille Chemin n°11 </desc>
<link href="https://chemins.be/jandrainjandrenouille/chemin/11"/><trkseg>
<trkpt lat="50.668431" lon="4.994590"><time>2026-05-02T17:43:34Z</time></trkpt>
<trkpt lat="50.671841" lon="4.994070"><time>2026-05-02T17:53:34Z</time></trkpt>
<trkpt lat="50.674480" lon="4.994798"><time>2026-05-02T18:03:34Z</time></trkpt>
<trkpt lat="50.676920" lon="4.994166"><time>2026-05-02T18:13:34Z</time></trkpt>
<trkpt lat="50.678339" lon="4.994340"><time>2026-05-02T18:23:34Z</time></trkpt>
<trkpt lat="50.682297" lon="4.995709"><time>2026-05-02T18:33:34Z</time></trkpt>
<trkpt lat="50.683859" lon="4.996055"><time>2026-05-02T18:43:34Z</time></trkpt>
</trkseg>
</trk>
<trk>
<name>bojjj12</name>
<cmt>v</cmt>
<desc>Jandrain-Jandrenouille Chemin n°12 </desc>
<link href="https://chemins.be/jandrainjandrenouille/chemin/12"/><trkseg>
<trkpt lat="50.691714" lon="4.967043"><time>2026-05-02T17:43:34Z</time></trkpt>
<trkpt lat="50.690070" lon="4.968689"><time>2026-05-02T17:53:34Z</time></trkpt>
<trkpt lat="50.689213" lon="4.969554"><time>2026-05-02T18:03:34Z</time></trkpt>
<trkpt lat="50.689009" lon="4.970283"><time>2026-05-02T18:13:34Z</time></trkpt>
<trkpt lat="50.688535" lon="4.971043"><time>2026-05-02T18:23:34Z</time></trkpt>
<trkpt lat="50.688347" lon="4.971159"><time>2026-05-02T18:33:34Z</time></trkpt>
<trkpt lat="50.687759" lon="4.970670"><time>2026-05-02T18:43:34Z</time></trkpt>
<trkpt lat="50.687724" lon="4.970484"><time>2026-05-02T18:53:34Z</time></trkpt>
<trkpt lat="50.687517" lon="4.970993"><time>2026-05-02T19:03:34Z</time></trkpt>
<trkpt lat="50.687398" lon="4.971518"><time>2026-05-02T19:13:34Z</time></trkpt>
<trkpt lat="50.687188" lon="4.971730"><time>2026-05-02T19:23:34Z</time></trkpt>
<trkpt lat="50.686811" lon="4.971569"><time>2026-05-02T19:33:34Z</time></trkpt>
</trkseg></trk>
<trk>
<name>bojjj12</name>
<cmt>q</cmt>
<desc>Jandrain-Jandrenouille Chemin n°12 </desc>
<link href="https://chemins.be/jandrainjandrenouille/chemin/12"/><trkseg>
<trkpt lat="50.686811" lon="4.971569"><time>2026-05-02T19:33:34Z</time></trkpt>
<trkpt lat="50.686244" lon="4.971604"><time>2026-05-02T19:43:34Z</time></trkpt>
<trkpt lat="50.685693" lon="4.972206"><time>2026-05-02T19:53:34Z</time></trkpt>
<trkpt lat="50.684658" lon="4.972362"><time>2026-05-02T20:03:34Z</time></trkpt>
<trkpt lat="50.682418" lon="4.973318"><time>2026-05-02T20:13:34Z</time></trkpt>
</trkseg></trk>
<trk>
<name>bojjj12</name>
<cmt>d</cmt>
<desc>Jandrain-Jandrenouille Chemin n°12 </desc>
<link href="https://chemins.be/jandrainjandrenouille/chemin/12"/><trkseg>
<trkpt lat="50.682418" lon="4.973318"><time>2026-05-02T20:13:34Z</time></trkpt>
<trkpt lat="50.681514" lon="4.973750"><time>2026-05-02T20:23:34Z</time></trkpt>
<trkpt lat="50.680085" lon="4.974777"><time>2026-05-02T20:33:34Z</time></trkpt>
</trkseg>
</trk>
<trk>
<name>bojjj13</name>
<cmt>v</cmt>
<desc>Jandrain-Jandrenouille Chemin n°13 </desc>
<link href="https://chemins.be/jandrainjandrenouille/chemin/13"/><trkseg>
<trkpt lat="50.685811" lon="4.978841"><time>2026-05-02T17:43:34Z</time></trkpt>
<trkpt lat="50.682385" lon="4.973348"><time>2026-05-02T17:53:34Z</time></trkpt>
</trkseg></trk>
<trk>
<name>bojjj13</name>
<cmt>d</cmt>
<desc>Jandrain-Jandrenouille Chemin n°13 </desc>
<link href="https://chemins.be/jandrainjandrenouille/chemin/13"/><trkseg>
<trkpt lat="50.682385" lon="4.973348"><time>2026-05-02T17:53:34Z</time></trkpt>
<trkpt lat="50.682026" lon="4.973004"><time>2026-05-02T18:03:34Z</time></trkpt>
<trkpt lat="50.681047" lon="4.972558"><time>2026-05-02T18:13:34Z</time></trkpt>
</trkseg></trk>
<trk>
<name>bojjj13</name>
<cmt>v</cmt>
<desc>Jandrain-Jandrenouille Chemin n°13 </desc>
<link href="https://chemins.be/jandrainjandrenouille/chemin/13"/><trkseg>
<trkpt lat="50.681047" lon="4.972558"><time>2026-05-02T18:13:34Z</time></trkpt>
<trkpt lat="50.678696" lon="4.971497"><time>2026-05-02T18:23:34Z</time></trkpt>
<trkpt lat="50.676423" lon="4.971020"><time>2026-05-02T18:33:34Z</time></trkpt>
<trkpt lat="50.675360" lon="4.970810"><time>2026-05-02T18:43:34Z</time></trkpt>
<trkpt lat="50.673417" lon="4.971091"><time>2026-05-02T18:53:34Z</time></trkpt>
<trkpt lat="50.671559" lon="4.970010"><time>2026-05-02T19:03:34Z</time></trkpt>
<trkpt lat="50.670778" lon="4.968834"><time>2026-05-02T19:13:34Z</time></trkpt>
<trkpt lat="50.670314" lon="4.968421"><time>2026-05-02T19:23:34Z</time></trkpt>
<trkpt lat="50.666949" lon="4.965115"><time>2026-05-02T19:33:34Z</time></trkpt>
<trkpt lat="50.663469" lon="4.959909"><time>2026-05-02T19:43:34Z</time></trkpt>
<trkpt lat="50.662129" lon="4.958988"><time>2026-05-02T19:53:34Z</time></trkpt>
<trkpt lat="50.658201" lon="4.957120"><time>2026-05-02T20:03:34Z</time></trkpt>
<trkpt lat="50.655359" lon="4.954561"><time>2026-05-02T20:13:34Z</time></trkpt>
<trkpt lat="50.654713" lon="4.954026"><time>2026-05-02T20:23:34Z</time></trkpt>
<trkpt lat="50.652558" lon="4.951366"><time>2026-05-02T20:33:34Z</time></trkpt>
</trkseg>
</trk>
<trk>
<name>bojjj14</name>
<cmt>v</cmt>
<desc>Jandrain-Jandrenouille Chemin n°14 </desc>
<link href="https://chemins.be/jandrainjandrenouille/chemin/14"/><trkseg>
<trkpt lat="50.642245" lon="4.983364"><time>2026-05-02T17:43:34Z</time></trkpt>
<trkpt lat="50.644250" lon="4.985081"><time>2026-05-02T17:53:34Z</time></trkpt>
<trkpt lat="50.644815" lon="4.986575"><time>2026-05-02T18:03:34Z</time></trkpt>
<trkpt lat="50.645430" lon="4.988101"><time>2026-05-02T18:13:34Z</time></trkpt>
</trkseg>
</trk>
<trk>
<name>bojjj15</name>
<cmt>r</cmt>
<desc>Jandrain-Jandrenouille Chemin n°15 Rue du Pissaumont / Rue du Chêneau</desc>
<link href="https://chemins.be/jandrainjandrenouille/chemin/15"/><trkseg>
<trkpt lat="50.672984" lon="4.982003"><time>2026-05-02T17:43:34Z</time></trkpt>
<trkpt lat="50.673759" lon="4.981631"><time>2026-05-02T17:53:34Z</time></trkpt>
<trkpt lat="50.674101" lon="4.981494"><time>2026-05-02T18:03:34Z</time></trkpt>
<trkpt lat="50.674440" lon="4.982022"><time>2026-05-02T18:13:34Z</time></trkpt>
<trkpt lat="50.675746" lon="4.982624"><time>2026-05-02T18:23:34Z</time></trkpt>
<trkpt lat="50.678163" lon="4.983005"><time>2026-05-02T18:33:34Z</time></trkpt>
</trkseg></trk>
<trk>
<name>bojjj15</name>
<cmt>v</cmt>
<desc>Jandrain-Jandrenouille Chemin n°15 Rue du Pissaumont / Rue du Chêneau</desc>
<link href="https://chemins.be/jandrainjandrenouille/chemin/15"/><trkseg>
<trkpt lat="50.678163" lon="4.983005"><time>2026-05-02T18:33:34Z</time></trkpt>
<trkpt lat="50.680016" lon="4.985041"><time>2026-05-02T18:43:34Z</time></trkpt>
<trkpt lat="50.681280" lon="4.986822"><time>2026-05-02T18:53:34Z</time></trkpt>
<trkpt lat="50.682952" lon="4.990684"><time>2026-05-02T19:03:34Z</time></trkpt>
<trkpt lat="50.683830" lon="4.992943"><time>2026-05-02T19:13:34Z</time></trkpt>
<trkpt lat="50.684278" lon="4.993565"><time>2026-05-02T19:23:34Z</time></trkpt>
</trkseg>
</trk>
<trk>
<name>bojjj16</name>
<cmt>v</cmt>
<desc>Jandrain-Jandrenouille Chemin n°16 Rue de la Féculerie / Rue de Genville</desc>
<link href="https://chemins.be/jandrainjandrenouille/chemin/16"/><trkseg>
<trkpt lat="50.680714" lon="4.970062"><time>2026-05-02T17:43:34Z</time></trkpt>
<trkpt lat="50.680612" lon="4.972424"><time>2026-05-02T17:53:34Z</time></trkpt>
<trkpt lat="50.680052" lon="4.974751"><time>2026-05-02T18:03:34Z</time></trkpt>
<trkpt lat="50.678559" lon="4.976487"><time>2026-05-02T18:13:34Z</time></trkpt>
<trkpt lat="50.678302" lon="4.977516"><time>2026-05-02T18:23:34Z</time></trkpt>
<trkpt lat="50.679162" lon="4.979947"><time>2026-05-02T18:33:34Z</time></trkpt>
</trkseg></trk>
<trk>
<name>bojjj16</name>
<cmt>r</cmt>
<desc>Jandrain-Jandrenouille Chemin n°16 Rue de la Féculerie / Rue de Genville</desc>
<link href="https://chemins.be/jandrainjandrenouille/chemin/16"/><trkseg>
<trkpt lat="50.679162" lon="4.979947"><time>2026-05-02T18:33:34Z</time></trkpt>
<trkpt lat="50.680358" lon="4.979863"><time>2026-05-02T18:43:34Z</time></trkpt>
</trkseg></trk>
<trk>
<name>bojjj16</name>
<cmt>v</cmt>
<desc>Jandrain-Jandrenouille Chemin n°16 Rue de la Féculerie / Rue de Genville</desc>
<link href="https://chemins.be/jandrainjandrenouille/chemin/16"/><trkseg>
<trkpt lat="50.680358" lon="4.979863"><time>2026-05-02T18:43:34Z</time></trkpt>
<trkpt lat="50.680506" lon="4.980714"><time>2026-05-02T18:53:34Z</time></trkpt>
<trkpt lat="50.680573" lon="4.981762"><time>2026-05-02T19:03:34Z</time></trkpt>
<trkpt lat="50.680154" lon="4.982648"><time>2026-05-02T19:13:34Z</time></trkpt>
<trkpt lat="50.680169" lon="4.983271"><time>2026-05-02T19:23:34Z</time></trkpt>
<trkpt lat="50.679989" lon="4.984967"><time>2026-05-02T19:33:34Z</time></trkpt>
<trkpt lat="50.679036" lon="4.988534"><time>2026-05-02T19:43:34Z</time></trkpt>
<trkpt lat="50.678625" lon="4.991387"><time>2026-05-02T19:53:34Z</time></trkpt>
<trkpt lat="50.678501" lon="4.992729"><time>2026-05-02T20:03:34Z</time></trkpt>
<trkpt lat="50.678232" lon="4.994310"><time>2026-05-02T20:13:34Z</time></trkpt>
<trkpt lat="50.678257" lon="4.996320"><time>2026-05-02T20:23:34Z</time></trkpt>
<trkpt lat="50.677763" lon="4.997940"><time>2026-05-02T20:33:34Z</time></trkpt>
<trkpt lat="50.677712" lon="4.998973"><time>2026-05-02T20:43:34Z</time></trkpt>
</trkseg>
</trk>
<trk>
<name>bojjj17</name>
<cmt>v</cmt>
<desc>Jandrain-Jandrenouille Chemin n°17 </desc>
<link href="https://chemins.be/jandrainjandrenouille/chemin/17"/><trkseg>
<trkpt lat="50.672410" lon="4.986692"><time>2026-05-02T17:43:34Z</time></trkpt>
<trkpt lat="50.669622" lon="4.988636"><time>2026-05-02T17:53:34Z</time></trkpt>
<trkpt lat="50.667325" lon="4.989554"><time>2026-05-02T18:03:34Z</time></trkpt>
<trkpt lat="50.662628" lon="4.990256"><time>2026-05-02T18:13:34Z</time></trkpt>
<trkpt lat="50.660294" lon="4.991371"><time>2026-05-02T18:23:34Z</time></trkpt>
<trkpt lat="50.658949" lon="4.992833"><time>2026-05-02T18:33:34Z</time></trkpt>
</trkseg>
</trk>
<trk>
<name>bojjj19</name>
<cmt>v</cmt>
<desc>Jandrain-Jandrenouille Chemin n°19 </desc>
<link href="https://chemins.be/jandrainjandrenouille/chemin/19"/><trkseg>
<trkpt lat="50.676583" lon="4.985154"><time>2026-05-02T17:43:34Z</time></trkpt>
<trkpt lat="50.677725" lon="4.987289"><time>2026-05-02T17:53:34Z</time></trkpt>
<trkpt lat="50.678724" lon="4.990625"><time>2026-05-02T18:03:34Z</time></trkpt>
</trkseg>
</trk>
<trk>
<name>bojjj2</name>
<cmt>r</cmt>
<desc>Jandrain-Jandrenouille Chemin n°2 Rue du Poteau</desc>
<link href="https://chemins.be/jandrainjandrenouille/chemin/2"/><trkseg>
<trkpt lat="50.655970" lon="4.979406"><time>2026-05-02T17:43:34Z</time></trkpt>
<trkpt lat="50.655436" lon="4.980007"><time>2026-05-02T17:53:34Z</time></trkpt>
</trkseg></trk>
<trk>
<name>bojjj2</name>
<cmt>v</cmt>
<desc>Jandrain-Jandrenouille Chemin n°2 Rue du Poteau</desc>
<link href="https://chemins.be/jandrainjandrenouille/chemin/2"/><trkseg>
<trkpt lat="50.655436" lon="4.980007"><time>2026-05-02T17:53:34Z</time></trkpt>
<trkpt lat="50.653676" lon="4.980741"><time>2026-05-02T18:03:34Z</time></trkpt>
<trkpt lat="50.653272" lon="4.980910"><time>2026-05-02T18:13:34Z</time></trkpt>
<trkpt lat="50.652958" lon="4.981163"><time>2026-05-02T18:23:34Z</time></trkpt>
<trkpt lat="50.651575" lon="4.982545"><time>2026-05-02T18:33:34Z</time></trkpt>
<trkpt lat="50.648398" lon="4.986576"><time>2026-05-02T18:43:34Z</time></trkpt>
<trkpt lat="50.647386" lon="4.987129"><time>2026-05-02T18:53:34Z</time></trkpt>
<trkpt lat="50.645456" lon="4.988114"><time>2026-05-02T19:03:34Z</time></trkpt>
</trkseg>
</trk>
<trk>
<name>bojjj20</name>
<cmt>v</cmt>
<desc>Jandrain-Jandrenouille Chemin n°20 </desc>
<link href="https://chemins.be/jandrainjandrenouille/chemin/20"/><trkseg>
<trkpt lat="50.686856" lon="4.971527"><time>2026-05-02T17:43:34Z</time></trkpt>
<trkpt lat="50.686447" lon="4.970602"><time>2026-05-02T17:53:34Z</time></trkpt>
<trkpt lat="50.685920" lon="4.969973"><time>2026-05-02T18:03:34Z</time></trkpt>
<trkpt lat="50.685551" lon="4.970138"><time>2026-05-02T18:13:34Z</time></trkpt>
<trkpt lat="50.685201" lon="4.969978"><time>2026-05-02T18:23:34Z</time></trkpt>
<trkpt lat="50.682143" lon="4.972033"><time>2026-05-02T18:33:34Z</time></trkpt>
<trkpt lat="50.681602" lon="4.972267"><time>2026-05-02T18:43:34Z</time></trkpt>
<trkpt lat="50.681027" lon="4.972513"><time>2026-05-02T18:53:34Z</time></trkpt>
</trkseg></trk>
<trk>
<name>bojjj20</name>
<cmt>q</cmt>
<desc>Jandrain-Jandrenouille Chemin n°20 </desc>
<link href="https://chemins.be/jandrainjandrenouille/chemin/20"/><trkseg>
<trkpt lat="50.681027" lon="4.972513"><time>2026-05-02T18:53:34Z</time></trkpt>
<trkpt lat="50.680448" lon="4.972947"><time>2026-05-02T19:03:34Z</time></trkpt>
<trkpt lat="50.677088" lon="4.973595"><time>2026-05-02T19:13:34Z</time></trkpt>
<trkpt lat="50.675904" lon="4.972794"><time>2026-05-02T19:23:34Z</time></trkpt>
<trkpt lat="50.673933" lon="4.973932"><time>2026-05-02T19:33:34Z</time></trkpt>
</trkseg>
</trk>
<trk>
<name>bojjj21</name>
<cmt>q</cmt>
<desc>Jandrain-Jandrenouille Chemin n°21 </desc>
<link href="https://chemins.be/jandrainjandrenouille/chemin/21"/><trkseg>
<trkpt lat="50.669635" lon="4.975649"><time>2026-05-02T17:43:34Z</time></trkpt>
<trkpt lat="50.671026" lon="4.969107"><time>2026-05-02T17:53:34Z</time></trkpt>
</trkseg></trk>
<trk>
<name>bojjj21</name>
<cmt>r</cmt>
<desc>Jandrain-Jandrenouille Chemin n°21 </desc>
<link href="https://chemins.be/jandrainjandrenouille/chemin/21"/><trkseg>
<trkpt lat="50.671026" lon="4.969107"><time>2026-05-02T17:53:34Z</time></trkpt>
<trkpt lat="50.670796" lon="4.968840"><time>2026-05-02T18:03:34Z</time></trkpt>
</trkseg></trk>
<trk>
<name>bojjj21</name>
<cmt>d</cmt>
<desc>Jandrain-Jandrenouille Chemin n°21 </desc>
<link href="https://chemins.be/jandrainjandrenouille/chemin/21"/><trkseg>
<trkpt lat="50.670796" lon="4.968840"><time>2026-05-02T18:03:34Z</time></trkpt>
<trkpt lat="50.671382" lon="4.967915"><time>2026-05-02T18:13:34Z</time></trkpt>
</trkseg></trk>
<trk>
<name>bojjj21</name>
<cmt>q</cmt>
<desc>Jandrain-Jandrenouille Chemin n°21 </desc>
<link href="https://chemins.be/jandrainjandrenouille/chemin/21"/><trkseg>
<trkpt lat="50.671382" lon="4.967915"><time>2026-05-02T18:13:34Z</time></trkpt>
<trkpt lat="50.671652" lon="4.966467"><time>2026-05-02T18:23:34Z</time></trkpt>
<trkpt lat="50.671816" lon="4.964536"><time>2026-05-02T18:33:34Z</time></trkpt>
</trkseg>
</trk>
<trk>
<name>bojjj22</name>
<cmt>d</cmt>
<desc>Jandrain-Jandrenouille Chemin n°22 </desc>
<link href="https://chemins.be/jandrainjandrenouille/chemin/22"/><trkseg>
<trkpt lat="50.677504" lon="4.976727"><time>2026-05-02T17:43:34Z</time></trkpt>
<trkpt lat="50.676425" lon="4.975780"><time>2026-05-02T17:53:34Z</time></trkpt>
<trkpt lat="50.676304" lon="4.975374"><time>2026-05-02T18:03:34Z</time></trkpt>
<trkpt lat="50.676048" lon="4.974467"><time>2026-05-02T18:13:34Z</time></trkpt>
<trkpt lat="50.675891" lon="4.972817"><time>2026-05-02T18:23:34Z</time></trkpt>
<trkpt lat="50.675021" lon="4.972483"><time>2026-05-02T18:33:34Z</time></trkpt>
<trkpt lat="50.673733" lon="4.970938"><time>2026-05-02T18:43:34Z</time></trkpt>
</trkseg>
</trk>
<trk>
<name>bojjj23</name>
<cmt>r</cmt>
<desc>Jandrain-Jandrenouille Sentier n°23 Rue de Genville</desc>
<link href="https://chemins.be/jandrainjandrenouille/sentier/23"/><trkseg>
<trkpt lat="50.674703" lon="4.979383"><time>2026-05-02T17:43:34Z</time></trkpt>
<trkpt lat="50.675282" lon="4.979962"><time>2026-05-02T17:53:34Z</time></trkpt>
<trkpt lat="50.675727" lon="4.980030"><time>2026-05-02T18:03:34Z</time></trkpt>
<trkpt lat="50.676833" lon="4.979973"><time>2026-05-02T18:13:34Z</time></trkpt>
</trkseg>
</trk>
<trk>
<name>bojjj24</name>
<cmt>q</cmt>
<desc>Jandrain-Jandrenouille Sentier n°24 </desc>
<link href="https://chemins.be/jandrainjandrenouille/sentier/24"/><trkseg>
<trkpt lat="50.677579" lon="4.979983"><time>2026-05-02T17:43:34Z</time></trkpt>
<trkpt lat="50.677623" lon="4.976814"><time>2026-05-02T17:53:34Z</time></trkpt>
</trkseg>
</trk>
<trk>
<name>bojjj25</name>
<cmt>d</cmt>
<desc>Jandrain-Jandrenouille Sentier n°25 Rue de Branchon</desc>
<link href="https://chemins.be/jandrainjandrenouille/sentier/25"/><trkseg>
<trkpt lat="50.654748" lon="4.972875"><time>2026-05-02T17:43:34Z</time></trkpt>
<trkpt lat="50.655531" lon="4.972387"><time>2026-05-02T17:53:34Z</time></trkpt>
</trkseg></trk>
<trk>
<name>bojjj25</name>
<cmt>q</cmt>
<desc>Jandrain-Jandrenouille Sentier n°25 Rue de Branchon</desc>
<link href="https://chemins.be/jandrainjandrenouille/sentier/25"/><trkseg>
<trkpt lat="50.655531" lon="4.972387"><time>2026-05-02T17:53:34Z</time></trkpt>
<trkpt lat="50.657025" lon="4.973607"><time>2026-05-02T18:03:34Z</time></trkpt>
<trkpt lat="50.659617" lon="4.974757"><time>2026-05-02T18:13:34Z</time></trkpt>
<trkpt lat="50.664091" lon="4.977021"><time>2026-05-02T18:23:34Z</time></trkpt>
</trkseg></trk>
<trk>
<name>bojjj25</name>
<cmt>r</cmt>
<desc>Jandrain-Jandrenouille Sentier n°25 Rue de Branchon</desc>
<link href="https://chemins.be/jandrainjandrenouille/sentier/25"/><trkseg>
<trkpt lat="50.664091" lon="4.977021"><time>2026-05-02T18:23:34Z</time></trkpt>
<trkpt lat="50.665430" lon="4.977180"><time>2026-05-02T18:33:34Z</time></trkpt>
<trkpt lat="50.668431" lon="4.977502"><time>2026-05-02T18:43:34Z</time></trkpt>
</trkseg></trk>
<trk>
<name>bojjj25</name>
<cmt>v</cmt>
<desc>Jandrain-Jandrenouille Sentier n°25 Rue de Branchon</desc>
<link href="https://chemins.be/jandrainjandrenouille/sentier/25"/><trkseg>
<trkpt lat="50.668431" lon="4.977502"><time>2026-05-02T18:43:34Z</time></trkpt>
<trkpt lat="50.669484" lon="4.978958"><time>2026-05-02T18:53:34Z</time></trkpt>
</trkseg></trk>
<trk>
<name>bojjj25</name>
<cmt>d</cmt>
<desc>Jandrain-Jandrenouille Sentier n°25 Rue de Branchon</desc>
<link href="https://chemins.be/jandrainjandrenouille/sentier/25"/><trkseg>
<trkpt lat="50.669484" lon="4.978958"><time>2026-05-02T18:53:34Z</time></trkpt>
<trkpt lat="50.669994" lon="4.977847"><time>2026-05-02T19:03:34Z</time></trkpt>
<trkpt lat="50.670420" lon="4.977174"><time>2026-05-02T19:13:34Z</time></trkpt>
</trkseg>
</trk>
<trk>
<name>bojjj25bis</name>
<cmt>v</cmt>
<desc>Jandrain-Jandrenouille Sentier n°25bis </desc>
<link href="https://chemins.be/jandrainjandrenouille/sentier/25bis"/><trkseg>
<trkpt lat="50.655787" lon="4.974835"><time>2026-05-02T17:43:34Z</time></trkpt>
<trkpt lat="50.657061" lon="4.973621"><time>2026-05-02T17:53:34Z</time></trkpt>
</trkseg>
</trk>
<trk>
<name>bojjj25ter</name>
<cmt>q</cmt>
<desc>Jandrain-Jandrenouille Sentier n°25ter </desc>
<link href="https://chemins.be/jandrainjandrenouille/sentier/25ter"/><trkseg>
<trkpt lat="50.655534" lon="4.972426"><time>2026-05-02T17:43:34Z</time></trkpt>
<trkpt lat="50.656185" lon="4.974416"><time>2026-05-02T17:53:34Z</time></trkpt>
</trkseg>
</trk>
<trk>
<name>bojjj26</name>
<cmt>v</cmt>
<desc>Jandrain-Jandrenouille Sentier n°26 Rue des Tanneurs</desc>
<link href="https://chemins.be/jandrainjandrenouille/sentier/26"/><trkseg>
<trkpt lat="50.673685" lon="4.980300"><time>2026-05-02T17:43:34Z</time></trkpt>
<trkpt lat="50.672936" lon="4.980715"><time>2026-05-02T17:53:34Z</time></trkpt>
</trkseg></trk>
<trk>
<name>bojjj26</name>
<cmt>r</cmt>
<desc>Jandrain-Jandrenouille Sentier n°26 Rue des Tanneurs</desc>
<link href="https://chemins.be/jandrainjandrenouille/sentier/26"/><trkseg>
<trkpt lat="50.672936" lon="4.980715"><time>2026-05-02T17:53:34Z</time></trkpt>
<trkpt lat="50.672833" lon="4.979935"><time>2026-05-02T18:03:34Z</time></trkpt>
</trkseg></trk>
<trk>
<name>bojjj26</name>
<cmt>q</cmt>
<desc>Jandrain-Jandrenouille Sentier n°26 Rue des Tanneurs</desc>
<link href="https://chemins.be/jandrainjandrenouille/sentier/26"/><trkseg>
<trkpt lat="50.672833" lon="4.979935"><time>2026-05-02T18:03:34Z</time></trkpt>
<trkpt lat="50.672598" lon="4.980102"><time>2026-05-02T18:13:34Z</time></trkpt>
<trkpt lat="50.671125" lon="4.981639"><time>2026-05-02T18:23:34Z</time></trkpt>
<trkpt lat="50.670868" lon="4.982598"><time>2026-05-02T18:33:34Z</time></trkpt>
<trkpt lat="50.670798" lon="4.982257"><time>2026-05-02T18:43:34Z</time></trkpt>
</trkseg></trk>
<trk>
<name>bojjj26</name>
<cmt>v</cmt>
<desc>Jandrain-Jandrenouille Sentier n°26 Rue des Tanneurs</desc>
<link href="https://chemins.be/jandrainjandrenouille/sentier/26"/><trkseg>
<trkpt lat="50.670798" lon="4.982257"><time>2026-05-02T18:43:34Z</time></trkpt>
<trkpt lat="50.670030" lon="4.982884"><time>2026-05-02T18:53:34Z</time></trkpt>
<trkpt lat="50.669096" lon="4.982815"><time>2026-05-02T19:03:34Z</time></trkpt>
<trkpt lat="50.668699" lon="4.983008"><time>2026-05-02T19:13:34Z</time></trkpt>
<trkpt lat="50.664095" lon="4.983872"><time>2026-05-02T19:23:34Z</time></trkpt>
<trkpt lat="50.662799" lon="4.983643"><time>2026-05-02T19:33:34Z</time></trkpt>
<trkpt lat="50.660897" lon="4.982709"><time>2026-05-02T19:43:34Z</time></trkpt>
</trkseg>
</trk>
<trk>
<name>bojjj27</name>
<cmt>v</cmt>
<desc>Jandrain-Jandrenouille Sentier n°27 </desc>
<link href="https://chemins.be/jandrainjandrenouille/sentier/27"/><trkseg>
<trkpt lat="50.671139" lon="4.984044"><time>2026-05-02T17:43:34Z</time></trkpt>
<trkpt lat="50.668657" lon="4.985809"><time>2026-05-02T17:53:34Z</time></trkpt>
<trkpt lat="50.666211" lon="4.985989"><time>2026-05-02T18:03:34Z</time></trkpt>
<trkpt lat="50.663771" lon="4.986721"><time>2026-05-02T18:13:34Z</time></trkpt>
</trkseg>
</trk>
<trk>
<name>bojjj28</name>
<cmt>q</cmt>
<desc>Jandrain-Jandrenouille Sentier n°28 </desc>
<link href="https://chemins.be/jandrainjandrenouille/sentier/28"/><trkseg>
<trkpt lat="50.671210" lon="4.984187"><time>2026-05-02T17:43:34Z</time></trkpt>
<trkpt lat="50.670130" lon="4.986068"><time>2026-05-02T17:53:34Z</time></trkpt>
<trkpt lat="50.667244" lon="4.989525"><time>2026-05-02T18:03:34Z</time></trkpt>
</trkseg>
</trk>
<trk>
<name>bojjj29</name>
<cmt>v</cmt>
<desc>Jandrain-Jandrenouille Sentier n°29 Ruelle Monceau / Rue de Genville</desc>
<link href="https://chemins.be/jandrainjandrenouille/sentier/29"/><trkseg>
<trkpt lat="50.675499" lon="4.982347"><time>2026-05-02T17:43:34Z</time></trkpt>
<trkpt lat="50.675595" lon="4.981516"><time>2026-05-02T17:53:34Z</time></trkpt>
<trkpt lat="50.675291" lon="4.979973"><time>2026-05-02T18:03:34Z</time></trkpt>
</trkseg></trk>
<trk>
<name>bojjj29</name>
<cmt>r</cmt>
<desc>Jandrain-Jandrenouille Sentier n°29 Ruelle Monceau / Rue de Genville</desc>
<link href="https://chemins.be/jandrainjandrenouille/sentier/29"/><trkseg>
<trkpt lat="50.675291" lon="4.979973"><time>2026-05-02T18:03:34Z</time></trkpt>
<trkpt lat="50.675736" lon="4.980030"><time>2026-05-02T18:13:34Z</time></trkpt>
</trkseg></trk>
<trk>
<name>bojjj29</name>
<cmt>q</cmt>
<desc>Jandrain-Jandrenouille Sentier n°29 Ruelle Monceau / Rue de Genville</desc>
<link href="https://chemins.be/jandrainjandrenouille/sentier/29"/><trkseg>
<trkpt lat="50.675736" lon="4.980030"><time>2026-05-02T18:13:34Z</time></trkpt>
<trkpt lat="50.675321" lon="4.978652"><time>2026-05-02T18:23:34Z</time></trkpt>
<trkpt lat="50.675435" lon="4.977479"><time>2026-05-02T18:33:34Z</time></trkpt>
</trkseg>
</trk>
<trk>
<name>bojjj30</name>
<cmt>d</cmt>
<desc>Jandrain-Jandrenouille Sentier n°30 Rue du Vert Galant</desc>
<link href="https://chemins.be/jandrainjandrenouille/sentier/30"/><trkseg>
<trkpt lat="50.655472" lon="4.979951"><time>2026-05-02T17:43:34Z</time></trkpt>
<trkpt lat="50.655749" lon="4.980393"><time>2026-05-02T17:53:34Z</time></trkpt>
</trkseg></trk>
<trk>
<name>bojjj30</name>
<cmt>r</cmt>
<desc>Jandrain-Jandrenouille Sentier n°30 Rue du Vert Galant</desc>
<link href="https://chemins.be/jandrainjandrenouille/sentier/30"/><trkseg>
<trkpt lat="50.655749" lon="4.980393"><time>2026-05-02T17:53:34Z</time></trkpt>
<trkpt lat="50.655511" lon="4.981139"><time>2026-05-02T18:03:34Z</time></trkpt>
</trkseg></trk>
<trk>
<name>bojjj30</name>
<cmt>q</cmt>
<desc>Jandrain-Jandrenouille Sentier n°30 Rue du Vert Galant</desc>
<link href="https://chemins.be/jandrainjandrenouille/sentier/30"/><trkseg>
<trkpt lat="50.655511" lon="4.981139"><time>2026-05-02T18:03:34Z</time></trkpt>
<trkpt lat="50.655819" lon="4.982515"><time>2026-05-02T18:13:34Z</time></trkpt>
<trkpt lat="50.656997" lon="4.985698"><time>2026-05-02T18:23:34Z</time></trkpt>
<trkpt lat="50.656864" lon="4.987224"><time>2026-05-02T18:33:34Z</time></trkpt>
<trkpt lat="50.656859" lon="4.989855"><time>2026-05-02T18:43:34Z</time></trkpt>
</trkseg>
</trk>
<trk>
<name>bojjj31</name>
<cmt>q</cmt>
<desc>Jandrain-Jandrenouille Chemin n°31 </desc>
<link href="https://chemins.be/jandrainjandrenouille/chemin/31"/><trkseg>
<trkpt lat="50.687524" lon="4.971009"><time>2026-05-02T17:43:34Z</time></trkpt>
<trkpt lat="50.688272" lon="4.973298"><time>2026-05-02T17:53:34Z</time></trkpt>
<trkpt lat="50.688620" lon="4.974148"><time>2026-05-02T18:03:34Z</time></trkpt>
</trkseg>
</trk>
<trk>
<name>bojjj32</name>
<cmt>d</cmt>
<desc>Jandrain-Jandrenouille Sentier n°32 </desc>
<link href="https://chemins.be/jandrainjandrenouille/sentier/32"/><trkseg>
<trkpt lat="50.654709" lon="4.954066"><time>2026-05-02T17:43:34Z</time></trkpt>
<trkpt lat="50.652639" lon="4.956532"><time>2026-05-02T17:53:34Z</time></trkpt>
<trkpt lat="50.650915" lon="4.960029"><time>2026-05-02T18:03:34Z</time></trkpt>
<trkpt lat="50.650041" lon="4.961618"><time>2026-05-02T18:13:34Z</time></trkpt>
</trkseg></trk>
<trk>
<name>bojjj32</name>
<cmt>q</cmt>
<desc>Jandrain-Jandrenouille Sentier n°32 </desc>
<link href="https://chemins.be/jandrainjandrenouille/sentier/32"/><trkseg>
<trkpt lat="50.650041" lon="4.961618"><time>2026-05-02T18:13:34Z</time></trkpt>
<trkpt lat="50.648446" lon="4.965321"><time>2026-05-02T18:23:34Z</time></trkpt>
</trkseg>
</trk>
<trk>
<name>bojjj33</name>
<cmt>v</cmt>
<desc>Jandrain-Jandrenouille Chemin n°33 </desc>
<link href="https://chemins.be/jandrainjandrenouille/chemin/33"/><trkseg>
<trkpt lat="50.653352" lon="4.965909"><time>2026-05-02T17:43:34Z</time></trkpt>
<trkpt lat="50.650920" lon="4.960005"><time>2026-05-02T17:53:34Z</time></trkpt>
<trkpt lat="50.647862" lon="4.953528"><time>2026-05-02T18:03:34Z</time></trkpt>
</trkseg>
</trk>
<trk>
<name>bojjj35</name>
<cmt>q</cmt>
<desc>Jandrain-Jandrenouille Sentier n°35 Rue de Paris</desc>
<link href="https://chemins.be/jandrainjandrenouille/sentier/35"/><trkseg>
<trkpt lat="50.653261" lon="4.965936"><time>2026-05-02T17:43:34Z</time></trkpt>
<trkpt lat="50.652722" lon="4.971176"><time>2026-05-02T17:53:34Z</time></trkpt>
<trkpt lat="50.652627" lon="4.973861"><time>2026-05-02T18:03:34Z</time></trkpt>
<trkpt lat="50.652409" lon="4.974396"><time>2026-05-02T18:13:34Z</time></trkpt>
</trkseg></trk>
<trk>
<name>bojjj35</name>
<cmt>v</cmt>
<desc>Jandrain-Jandrenouille Sentier n°35 Rue de Paris</desc>
<link href="https://chemins.be/jandrainjandrenouille/sentier/35"/><trkseg>
<trkpt lat="50.652409" lon="4.974396"><time>2026-05-02T18:13:34Z</time></trkpt>
<trkpt lat="50.652127" lon="4.974986"><time>2026-05-02T18:23:34Z</time></trkpt>
</trkseg></trk>
<trk>
<name>bojjj35</name>
<cmt>q</cmt>
<desc>Jandrain-Jandrenouille Sentier n°35 Rue de Paris</desc>
<link href="https://chemins.be/jandrainjandrenouille/sentier/35"/><trkseg>
<trkpt lat="50.652127" lon="4.974986"><time>2026-05-02T18:23:34Z</time></trkpt>
<trkpt lat="50.652580" lon="4.977792"><time>2026-05-02T18:33:34Z</time></trkpt>
<trkpt lat="50.652732" lon="4.977964"><time>2026-05-02T18:43:34Z</time></trkpt>
</trkseg></trk>
<trk>
<name>bojjj35</name>
<cmt>r</cmt>
<desc>Jandrain-Jandrenouille Sentier n°35 Rue de Paris</desc>
<link href="https://chemins.be/jandrainjandrenouille/sentier/35"/><trkseg>
<trkpt lat="50.652732" lon="4.977964"><time>2026-05-02T18:43:34Z</time></trkpt>
<trkpt lat="50.652834" lon="4.977258"><time>2026-05-02T18:53:34Z</time></trkpt>
<trkpt lat="50.653054" lon="4.976610"><time>2026-05-02T19:03:34Z</time></trkpt>
</trkseg></trk>
<trk>
<name>bojjj35</name>
<cmt>v</cmt>
<desc>Jandrain-Jandrenouille Sentier n°35 Rue de Paris</desc>
<link href="https://chemins.be/jandrainjandrenouille/sentier/35"/><trkseg>
<trkpt lat="50.653054" lon="4.976610"><time>2026-05-02T19:03:34Z</time></trkpt>
<trkpt lat="50.654446" lon="4.978608"><time>2026-05-02T19:13:34Z</time></trkpt>
</trkseg>
</trk>
<trk>
<name>bojjj36</name>
<cmt>q</cmt>
<desc>Jandrain-Jandrenouille Sentier n°36 </desc>
<link href="https://chemins.be/jandrainjandrenouille/sentier/36"/><trkseg>
<trkpt lat="50.650906" lon="4.972948"><time>2026-05-02T17:43:34Z</time></trkpt>
<trkpt lat="50.651679" lon="4.972888"><time>2026-05-02T17:53:34Z</time></trkpt>
<trkpt lat="50.654591" lon="4.973038"><time>2026-05-02T18:03:34Z</time></trkpt>
</trkseg>
</trk>
<trk>
<name>bojjj37</name>
<cmt>v</cmt>
<desc>Jandrain-Jandrenouille Chemin n°37 </desc>
<link href="https://chemins.be/jandrainjandrenouille/chemin/37"/><trkseg>
<trkpt lat="50.651820" lon="4.973526"><time>2026-05-02T17:43:34Z</time></trkpt>
<trkpt lat="50.651593" lon="4.972194"><time>2026-05-02T17:53:34Z</time></trkpt>
<trkpt lat="50.650573" lon="4.969565"><time>2026-05-02T18:03:34Z</time></trkpt>
<trkpt lat="50.648696" lon="4.965723"><time>2026-05-02T18:13:34Z</time></trkpt>
</trkseg>
</trk>
<trk>
<name>bojjj38</name>
<cmt>q</cmt>
<desc>Jandrain-Jandrenouille Sentier n°38 </desc>
<link href="https://chemins.be/jandrainjandrenouille/sentier/38"/><trkseg>
<trkpt lat="50.652109" lon="4.975043"><time>2026-05-02T17:43:34Z</time></trkpt>
<trkpt lat="50.651754" lon="4.975773"><time>2026-05-02T17:53:34Z</time></trkpt>
<trkpt lat="50.647463" lon="4.976383"><time>2026-05-02T18:03:34Z</time></trkpt>
<trkpt lat="50.647263" lon="4.976720"><time>2026-05-02T18:13:34Z</time></trkpt>
</trkseg>
</trk>
<trk>
<name>bojjj39</name>
<cmt>q</cmt>
<desc>Jandrain-Jandrenouille Sentier n°39 </desc>
<link href="https://chemins.be/jandrainjandrenouille/sentier/39"/><trkseg>
<trkpt lat="50.658245" lon="4.979280"><time>2026-05-02T17:43:34Z</time></trkpt>
<trkpt lat="50.657626" lon="4.980672"><time>2026-05-02T17:53:34Z</time></trkpt>
<trkpt lat="50.657113" lon="4.980863"><time>2026-05-02T18:03:34Z</time></trkpt>
<trkpt lat="50.655819" lon="4.982501"><time>2026-05-02T18:13:34Z</time></trkpt>
<trkpt lat="50.654955" lon="4.982603"><time>2026-05-02T18:23:34Z</time></trkpt>
<trkpt lat="50.651362" lon="4.983673"><time>2026-05-02T18:33:34Z</time></trkpt>
</trkseg>
</trk>
<trk>
<name>bojjj40</name>
<cmt>v</cmt>
<desc>Jandrain-Jandrenouille Sentier n°40 </desc>
<link href="https://chemins.be/jandrainjandrenouille/sentier/40"/><trkseg>
<trkpt lat="50.655466" lon="4.981252"><time>2026-05-02T17:43:34Z</time></trkpt>
<trkpt lat="50.654964" lon="4.982575"><time>2026-05-02T17:53:34Z</time></trkpt>
<trkpt lat="50.653865" lon="4.984724"><time>2026-05-02T18:03:34Z</time></trkpt>
</trkseg></trk>
<trk>
<name>bojjj40</name>
<cmt>d</cmt>
<desc>Jandrain-Jandrenouille Sentier n°40 </desc>
<link href="https://chemins.be/jandrainjandrenouille/sentier/40"/><trkseg>
<trkpt lat="50.653865" lon="4.984724"><time>2026-05-02T18:03:34Z</time></trkpt>
<trkpt lat="50.653660" lon="4.986079"><time>2026-05-02T18:13:34Z</time></trkpt>
<trkpt lat="50.652728" lon="4.988592"><time>2026-05-02T18:23:34Z</time></trkpt>
</trkseg>
</trk>
<trk>
<name>bojjj42</name>
<cmt>v</cmt>
<desc>Jandrain-Jandrenouille Sentier n°42 Ruelle Basse</desc>
<link href="https://chemins.be/jandrainjandrenouille/sentier/42"/><trkseg>
<trkpt lat="50.656275" lon="4.976100"><time>2026-05-02T17:43:34Z</time></trkpt>
<trkpt lat="50.655027" lon="4.977527"><time>2026-05-02T17:53:34Z</time></trkpt>
<trkpt lat="50.654499" lon="4.978665"><time>2026-05-02T18:03:34Z</time></trkpt>
</trkseg></trk>
<trk>
<name>bojjj42</name>
<cmt>b</cmt>
<desc>Jandrain-Jandrenouille Sentier n°42 Ruelle Basse</desc>
<link href="https://chemins.be/jandrainjandrenouille/sentier/42"/><trkseg>
<trkpt lat="50.654499" lon="4.978665"><time>2026-05-02T18:03:34Z</time></trkpt>
<trkpt lat="50.653698" lon="4.980593"><time>2026-05-02T18:13:34Z</time></trkpt>
</trkseg>
</trk>
<trk>
<name>bojjj42bis</name>
<cmt>v</cmt>
<desc>Jandrain-Jandrenouille Sentier n°42bis </desc>
<link href="https://chemins.be/jandrainjandrenouille/sentier/42bis"/><trkseg>
<trkpt lat="50.655500" lon="4.976359"><time>2026-05-02T17:43:34Z</time></trkpt>
<trkpt lat="50.655705" lon="4.976715"><time>2026-05-02T17:53:34Z</time></trkpt>
</trkseg>
</trk>
<trk>
<name>bojjj43</name>
<cmt>v</cmt>
<desc>Jandrain-Jandrenouille Chemin n°43 </desc>
<link href="https://chemins.be/jandrainjandrenouille/chemin/43"/><trkseg>
<trkpt lat="50.660480" lon="4.958203"><time>2026-05-02T17:43:34Z</time></trkpt>
<trkpt lat="50.661847" lon="4.957420"><time>2026-05-02T17:53:34Z</time></trkpt>
<trkpt lat="50.663547" lon="4.956744"><time>2026-05-02T18:03:34Z</time></trkpt>
<trkpt lat="50.665078" lon="4.956937"><time>2026-05-02T18:13:34Z</time></trkpt>
</trkseg>
</trk>
<trk>
<name>bojjj44</name>
<cmt>q</cmt>
<desc>Jandrain-Jandrenouille Sentier n°44 </desc>
<link href="https://chemins.be/jandrainjandrenouille/sentier/44"/><trkseg>
<trkpt lat="50.679873" lon="4.979772"><time>2026-05-02T17:43:34Z</time></trkpt>
<trkpt lat="50.680029" lon="4.979208"><time>2026-05-02T17:53:34Z</time></trkpt>
<trkpt lat="50.680131" lon="4.974993"><time>2026-05-02T18:03:34Z</time></trkpt>
</trkseg>
</trk>
<trk>
<name>bojjj45</name>
<cmt>r</cmt>
<desc>Jandrain-Jandrenouille Sentier n°45 Rue de Genville</desc>
<link href="https://chemins.be/jandrainjandrenouille/sentier/45"/><trkseg>
<trkpt lat="50.680363" lon="4.979854"><time>2026-05-02T17:43:34Z</time></trkpt>
<trkpt lat="50.681695" lon="4.980240"><time>2026-05-02T17:53:34Z</time></trkpt>
<trkpt lat="50.685012" lon="4.982686"><time>2026-05-02T18:03:34Z</time></trkpt>
<trkpt lat="50.686100" lon="4.983652"><time>2026-05-02T18:13:34Z</time></trkpt>
</trkseg>
</trk>
<trk>
<name>bojjj47</name>
<cmt>r</cmt>
<desc>Jandrain-Jandrenouille Sentier n°47 </desc>
<link href="https://chemins.be/jandrainjandrenouille/sentier/47"/><trkseg>
<trkpt lat="50.673677" lon="4.981786"><time>2026-05-02T17:43:34Z</time></trkpt>
<trkpt lat="50.674181" lon="4.985117"><time>2026-05-02T17:53:34Z</time></trkpt>
<trkpt lat="50.674313" lon="4.987368"><time>2026-05-02T18:03:34Z</time></trkpt>
<trkpt lat="50.674171" lon="4.988626"><time>2026-05-02T18:13:34Z</time></trkpt>
</trkseg></trk>
<trk>
<name>bojjj47</name>
<cmt>q</cmt>
<desc>Jandrain-Jandrenouille Sentier n°47 </desc>
<link href="https://chemins.be/jandrainjandrenouille/sentier/47"/><trkseg>
<trkpt lat="50.674171" lon="4.988626"><time>2026-05-02T18:13:34Z</time></trkpt>
<trkpt lat="50.673713" lon="4.991987"><time>2026-05-02T18:23:34Z</time></trkpt>
</trkseg>
</trk>
<trk>
<name>bojjj48</name>
<cmt>v</cmt>
<desc>Jandrain-Jandrenouille Chemin n°48 </desc>
<link href="https://chemins.be/jandrainjandrenouille/chemin/48"/><trkseg>
<trkpt lat="50.690094" lon="4.968727"><time>2026-05-02T17:43:34Z</time></trkpt>
<trkpt lat="50.690856" lon="4.971931"><time>2026-05-02T17:53:34Z</time></trkpt>
</trkseg>
</trk>
<trk>
<name>bojjj50</name>
<cmt>q</cmt>
<desc>Jandrain-Jandrenouille Sentier n°50 </desc>
<link href="https://chemins.be/jandrainjandrenouille/sentier/50"/><trkseg>
<trkpt lat="50.684431" lon="4.970464"><time>2026-05-02T17:43:34Z</time></trkpt>
<trkpt lat="50.684687" lon="4.972412"><time>2026-05-02T17:53:34Z</time></trkpt>
<trkpt lat="50.685968" lon="4.974586"><time>2026-05-02T18:03:34Z</time></trkpt>
<trkpt lat="50.686645" lon="4.976352"><time>2026-05-02T18:13:34Z</time></trkpt>
</trkseg>
</trk>
<trk>
<name>bojjj51</name>
<cmt>v</cmt>
<desc>Jandrain-Jandrenouille Sentier n°51 </desc>
<link href="https://chemins.be/jandrainjandrenouille/sentier/51"/><trkseg>
<trkpt lat="50.683910" lon="4.996081"><time>2026-05-02T17:43:34Z</time></trkpt>
<trkpt lat="50.683609" lon="4.997020"><time>2026-05-02T17:53:34Z</time></trkpt>
</trkseg>
</trk>
<trk>
<name>bojjj52</name>
<cmt>q</cmt>
<desc>Jandrain-Jandrenouille Sentier n°52 </desc>
<link href="https://chemins.be/jandrainjandrenouille/sentier/52"/><trkseg>
<trkpt lat="50.673825" lon="4.973833"><time>2026-05-02T17:43:34Z</time></trkpt>
<trkpt lat="50.671544" lon="4.970018"><time>2026-05-02T17:53:34Z</time></trkpt>
</trkseg>
</trk>
<trk>
<name>bojjj54</name>
<cmt>q</cmt>
<desc>Jandrain-Jandrenouille Sentier n°54 </desc>
<link href="https://chemins.be/jandrainjandrenouille/sentier/54"/><trkseg>
<trkpt lat="50.656021" lon="4.979845"><time>2026-05-02T17:43:34Z</time></trkpt>
<trkpt lat="50.656512" lon="4.980488"><time>2026-05-02T17:53:34Z</time></trkpt>
<trkpt lat="50.657086" lon="4.980834"><time>2026-05-02T18:03:34Z</time></trkpt>
</trkseg>
</trk>
<trk>
<name>bojjj55</name>
<cmt>d</cmt>
<desc>Jandrain-Jandrenouille Chemin n°55 </desc>
<link href="https://chemins.be/jandrainjandrenouille/chemin/55"/><trkseg>
<trkpt lat="50.648749" lon="4.951557"><time>2026-05-02T17:43:34Z</time></trkpt>
<trkpt lat="50.652618" lon="4.951446"><time>2026-05-02T17:53:34Z</time></trkpt>
</trkseg>
</trk>
<trk>
<name>bojjj56</name>
<cmt>v</cmt>
<desc>Jandrain-Jandrenouille Chemin n°56 </desc>
<link href="https://chemins.be/jandrainjandrenouille/chemin/56"/><trkseg>
<trkpt lat="50.658451" lon="4.979466"><time>2026-05-02T17:43:34Z</time></trkpt>
<trkpt lat="50.660716" lon="4.982932"><time>2026-05-02T17:53:34Z</time></trkpt>
</trkseg>
</trk>
<trk>
<name>bojjj57</name>
<cmt>v</cmt>
<desc>Jandrain-Jandrenouille Chemin n°57 </desc>
<link href="https://chemins.be/jandrainjandrenouille/chemin/57"/><trkseg>
<trkpt lat="50.678157" lon="4.983001"><time>2026-05-02T17:43:34Z</time></trkpt>
<trkpt lat="50.680018" lon="4.982740"><time>2026-05-02T17:53:34Z</time></trkpt>
<trkpt lat="50.680174" lon="4.982622"><time>2026-05-02T18:03:34Z</time></trkpt>
</trkseg>
</trk>
<trk>
<name>bojjj58</name>
<cmt>v</cmt>
<desc>Jandrain-Jandrenouille Sentier n°58 </desc>
<link href="https://chemins.be/jandrainjandrenouille/sentier/58"/><trkseg>
<trkpt lat="50.673943" lon="4.978843"><time>2026-05-02T17:43:34Z</time></trkpt>
<trkpt lat="50.674056" lon="4.979111"><time>2026-05-02T17:53:34Z</time></trkpt>
</trkseg></trk>
<trk>
<name>bojjj58</name>
<cmt>s</cmt>
<desc>Jandrain-Jandrenouille Sentier n°58 </desc>
<link href="https://chemins.be/jandrainjandrenouille/sentier/58"/><trkseg>
<trkpt lat="50.674056" lon="4.979111"><time>2026-05-02T17:53:34Z</time></trkpt>
<trkpt lat="50.674047" lon="4.979311"><time>2026-05-02T18:03:34Z</time></trkpt>
<trkpt lat="50.674156" lon="4.979641"><time>2026-05-02T18:13:34Z</time></trkpt>
<trkpt lat="50.674039" lon="4.980416"><time>2026-05-02T18:23:34Z</time></trkpt>
</trkseg>
</trk>
<trk>
<name>bojjj6</name>
<cmt>s</cmt>
<desc>Jandrain-Jandrenouille Chemin n°6 </desc>
<link href="https://chemins.be/jandrainjandrenouille/chemin/6"/><trkseg>
<trkpt lat="50.675867" lon="4.972757"><time>2026-05-02T17:43:34Z</time></trkpt>
<trkpt lat="50.676051" lon="4.970895"><time>2026-05-02T17:53:34Z</time></trkpt>
</trkseg></trk>
<trk>
<name>bojjj6</name>
<cmt>d</cmt>
<desc>Jandrain-Jandrenouille Chemin n°6 </desc>
<link href="https://chemins.be/jandrainjandrenouille/chemin/6"/><trkseg>
<trkpt lat="50.676051" lon="4.970895"><time>2026-05-02T17:53:34Z</time></trkpt>
<trkpt lat="50.676638" lon="4.969127"><time>2026-05-02T18:03:34Z</time></trkpt>
</trkseg>
</trk>
<trk>
<name>bojjj7</name>
<cmt>v</cmt>
<desc>Jandrain-Jandrenouille Chemin n°7 </desc>
<link href="https://chemins.be/jandrainjandrenouille/chemin/7"/><trkseg>
<trkpt lat="50.673364" lon="4.971062"><time>2026-05-02T17:43:34Z</time></trkpt>
<trkpt lat="50.672755" lon="4.966908"><time>2026-05-02T17:53:34Z</time></trkpt>
<trkpt lat="50.672506" lon="4.965154"><time>2026-05-02T18:03:34Z</time></trkpt>
</trkseg>
</trk>
<trk>
<name>bojjj8</name>
<cmt>v</cmt>
<desc>Jandrain-Jandrenouille Chemin n°8 Chemin de la Chapelle Ravet</desc>
<link href="https://chemins.be/jandrainjandrenouille/chemin/8"/><trkseg>
<trkpt lat="50.671070" lon="4.977910"><time>2026-05-02T17:43:34Z</time></trkpt>
<trkpt lat="50.670411" lon="4.977089"><time>2026-05-02T17:53:34Z</time></trkpt>
<trkpt lat="50.669484" lon="4.975449"><time>2026-05-02T18:03:34Z</time></trkpt>
<trkpt lat="50.668982" lon="4.974832"><time>2026-05-02T18:13:34Z</time></trkpt>
<trkpt lat="50.667949" lon="4.973138"><time>2026-05-02T18:23:34Z</time></trkpt>
</trkseg></trk>
<trk>
<name>bojjj8</name>
<cmt>d</cmt>
<desc>Jandrain-Jandrenouille Chemin n°8 Chemin de la Chapelle Ravet</desc>
<link href="https://chemins.be/jandrainjandrenouille/chemin/8"/><trkseg>
<trkpt lat="50.667949" lon="4.973138"><time>2026-05-02T18:23:34Z</time></trkpt>
<trkpt lat="50.667490" lon="4.972333"><time>2026-05-02T18:33:34Z</time></trkpt>
</trkseg></trk>
<trk>
<name>bojjj8</name>
<cmt>v</cmt>
<desc>Jandrain-Jandrenouille Chemin n°8 Chemin de la Chapelle Ravet</desc>
<link href="https://chemins.be/jandrainjandrenouille/chemin/8"/><trkseg>
<trkpt lat="50.667490" lon="4.972333"><time>2026-05-02T18:33:34Z</time></trkpt>
<trkpt lat="50.666008" lon="4.969733"><time>2026-05-02T18:43:34Z</time></trkpt>
<trkpt lat="50.665205" lon="4.969155"><time>2026-05-02T18:53:34Z</time></trkpt>
<trkpt lat="50.664240" lon="4.967490"><time>2026-05-02T19:03:34Z</time></trkpt>
<trkpt lat="50.663575" lon="4.965671"><time>2026-05-02T19:13:34Z</time></trkpt>
<trkpt lat="50.662143" lon="4.959005"><time>2026-05-02T19:23:34Z</time></trkpt>
<trkpt lat="50.661803" lon="4.957441"><time>2026-05-02T19:33:34Z</time></trkpt>
<trkpt lat="50.661301" lon="4.954078"><time>2026-05-02T19:43:34Z</time></trkpt>
</trkseg>
</trk>
<trk>
<name>bojjji1</name>
<cmt>v</cmt>
<desc>Jandrain-Jandrenouille Chemin n°i1 </desc>
<link href="https://chemins.be/jandrainjandrenouille/chemin/i1"/><trkseg>
<trkpt lat="50.666440" lon="4.973803"><time>2026-05-02T17:43:34Z</time></trkpt>
<trkpt lat="50.662088" lon="4.969888"><time>2026-05-02T17:53:34Z</time></trkpt>
<trkpt lat="50.658224" lon="4.965134"><time>2026-05-02T18:03:34Z</time></trkpt>
<trkpt lat="50.655611" lon="4.967923"><time>2026-05-02T18:13:34Z</time></trkpt>
<trkpt lat="50.655829" lon="4.968867"><time>2026-05-02T18:23:34Z</time></trkpt>
<trkpt lat="50.654142" lon="4.970069"><time>2026-05-02T18:33:34Z</time></trkpt>
</trkseg>
</trk>
<trk>
<name>bojjji2</name>
<cmt>v</cmt>
<desc>Jandrain-Jandrenouille Chemin n°i2 </desc>
<link href="https://chemins.be/jandrainjandrenouille/chemin/i2"/><trkseg>
<trkpt lat="50.680573" lon="4.981871"><time>2026-05-02T17:43:34Z</time></trkpt>
<trkpt lat="50.682388" lon="4.982214"><time>2026-05-02T17:53:34Z</time></trkpt>
</trkseg></trk>
<trk>
<name>bojjji2</name>
<cmt>q</cmt>
<desc>Jandrain-Jandrenouille Chemin n°i2 </desc>
<link href="https://chemins.be/jandrainjandrenouille/chemin/i2"/><trkseg>
<trkpt lat="50.682388" lon="4.982214"><time>2026-05-02T17:53:34Z</time></trkpt>
<trkpt lat="50.683326" lon="4.982965"><time>2026-05-02T18:03:34Z</time></trkpt>
<trkpt lat="50.684298" lon="4.983405"><time>2026-05-02T18:13:34Z</time></trkpt>
<trkpt lat="50.685665" lon="4.983598"><time>2026-05-02T18:23:34Z</time></trkpt>
</trkseg>
</trk>
<trk>
<name>bojjji3</name>
<cmt>v</cmt>
<desc>Jandrain-Jandrenouille Chemin n°i3 </desc>
<link href="https://chemins.be/jandrainjandrenouille/chemin/i3"/><trkseg>
<trkpt lat="50.683095" lon="4.998258"><time>2026-05-02T17:43:34Z</time></trkpt>
<trkpt lat="50.682856" lon="4.997425"><time>2026-05-02T17:53:34Z</time></trkpt>
<trkpt lat="50.682929" lon="4.997069"><time>2026-05-02T18:03:34Z</time></trkpt>
<trkpt lat="50.682992" lon="4.997069"><time>2026-05-02T18:13:34Z</time></trkpt>
<trkpt lat="50.683030" lon="4.996859"><time>2026-05-02T18:23:34Z</time></trkpt>
<trkpt lat="50.683163" lon="4.996752"><time>2026-05-02T18:33:34Z</time></trkpt>
<trkpt lat="50.683641" lon="4.996919"><time>2026-05-02T18:43:34Z</time></trkpt>
</trkseg>
</trk>
<trk>
<name>bojjji4</name>
<cmt>v</cmt>
<desc>Jandrain-Jandrenouille Chemin n°i4 </desc>
<link href="https://chemins.be/jandrainjandrenouille/chemin/i4"/><trkseg>
<trkpt lat="50.682381" lon="4.973344"><time>2026-05-02T17:43:34Z</time></trkpt>
<trkpt lat="50.682136" lon="4.972044"><time>2026-05-02T17:53:34Z</time></trkpt>
</trkseg>
</trk>
<trk>
<name>bojjjL147</name>
<cmt>v</cmt>
<desc>Jandrain-Jandrenouille Chemin n°L147 </desc>
<link href="https://chemins.be/jandrainjandrenouille/chemin/L147"/><trkseg>
<trkpt lat="50.685341" lon="4.968989"><time>2026-05-02T17:43:34Z</time></trkpt>
<trkpt lat="50.688164" lon="4.975974"><time>2026-05-02T17:53:34Z</time></trkpt>
</trkseg>
</trk>
</gpx>